createdAt,value
2018-12-24T10:51:12.736Z,4.63
2018-12-24T10:53:41.911Z,4.77
2018-12-24T10:56:11.156Z,5.20
2018-12-24T10:58:40.323Z,5.13
2018-12-24T11:01:09.610Z,4.73
2018-12-24T11:03:38.779Z,4.87
2018-12-24T11:06:07.938Z,4.33
2018-12-24T11:08:37.124Z,4.50
2018-12-24T11:11:06.474Z,4.50
2018-12-24T11:13:35.631Z,4.57
2018-12-24T11:16:04.799Z,3.90
2018-12-24T11:18:34.083Z,3.90
2018-12-24T11:21:03.262Z,3.93
2018-12-24T11:23:32.560Z,4.03
2018-12-24T11:26:01.907Z,3.63
2018-12-24T11:28:31.491Z,3.40
2018-12-24T11:31:00.671Z,3.43
2018-12-24T11:33:29.946Z,2.80
2018-12-24T11:35:59.180Z,2.50
2018-12-24T11:38:28.468Z,2.90
2018-12-24T11:40:57.652Z,4.13
2018-12-24T11:43:26.877Z,3.60
2018-12-24T11:45:56.153Z,3.30
2018-12-24T11:48:25.396Z,3.83
2018-12-24T11:50:54.718Z,3.60
2018-12-24T11:53:23.996Z,3.20
2018-12-24T11:55:53.207Z,2.93
2018-12-24T11:58:22.380Z,2.50
2018-12-24T12:00:51.083Z,2.40
2018-12-24T12:03:19.812Z,2.60
2018-12-24T12:05:48.544Z,3.15
2018-12-24T12:08:17.251Z,2.60
2018-12-24T12:10:45.914Z,2.60
2018-12-24T12:13:14.576Z,3.22
2018-12-24T12:15:43.236Z,11.33
2018-12-24T12:18:12.449Z,6.22
2018-12-24T12:20:41.727Z,3.52
2018-12-24T12:23:10.929Z,3.40
2018-12-24T12:25:40.101Z,3.17
2018-12-24T12:28:09.259Z,3.63
2018-12-24T12:30:38.467Z,4.35
2018-12-24T12:33:07.661Z,3.95
2018-12-24T12:35:36.851Z,2.90
2018-12-24T12:38:06.076Z,3.10
2018-12-24T12:40:35.352Z,4.00
2018-12-24T12:43:04.613Z,4.55
2018-12-24T12:45:33.881Z,5.15
2018-12-24T12:48:03.108Z,4.30
2018-12-24T12:50:32.280Z,4.50
2018-12-24T12:53:01.452Z,3.25
2018-12-24T12:55:30.655Z,2.70
2018-12-24T12:57:59.923Z,2.70
2018-12-24T13:00:28.637Z,2.80
2018-12-24T13:02:57.286Z,2.60
2018-12-24T13:05:25.868Z,2.60
2018-12-24T13:07:55.033Z,2.83
2018-12-24T13:10:25.601Z,3.52
2018-12-24T13:12:54.255Z,2.60
2018-12-24T13:15:23.439Z,2.45
2018-12-24T13:17:52.067Z,2.75
2018-12-24T13:20:25.010Z,2.83
2018-12-24T13:22:51.121Z,2.90
2018-12-24T13:25:19.705Z,2.92
2018-12-24T13:27:48.358Z,2.70
2018-12-24T13:30:16.992Z,3.20
2018-12-24T13:32:46.132Z,3.60
2018-12-24T13:35:14.824Z,3.50
2018-12-24T13:37:43.396Z,3.47
2018-12-24T13:40:11.994Z,3.67
2018-12-24T13:42:40.643Z,3.37
2018-12-24T13:45:09.306Z,3.03
2018-12-24T13:47:38.527Z,3.57
2018-12-24T13:50:07.716Z,3.40
2018-12-24T13:52:36.984Z,3.27
2018-12-24T13:55:06.156Z,3.20
2018-12-24T13:57:35.408Z,3.47
2018-12-24T14:00:04.790Z,3.27
2018-12-24T14:02:34.025Z,3.40
2018-12-24T14:05:03.211Z,3.63
2018-12-24T14:07:32.477Z,3.57
2018-12-24T14:10:01.627Z,3.70
2018-12-24T14:12:30.900Z,3.13
2018-12-24T14:15:00.179Z,5.20
2018-12-24T14:17:29.359Z,3.73
2018-12-24T14:19:58.523Z,3.67
2018-12-24T14:22:27.704Z,3.80
2018-12-24T14:24:56.952Z,3.57
2018-12-24T14:27:26.188Z,3.47
2018-12-24T14:29:55.364Z,3.57
2018-12-24T14:32:24.612Z,3.63
2018-12-24T14:34:53.803Z,4.00
2018-12-24T14:37:22.971Z,3.23
2018-12-24T14:39:52.136Z,3.97
2018-12-24T14:42:21.299Z,3.67
2018-12-24T14:44:50.502Z,3.83
2018-12-24T14:47:19.702Z,3.80
2018-12-24T14:49:48.962Z,3.80
2018-12-24T14:52:18.136Z,4.37
2018-12-24T14:54:47.336Z,4.90
2018-12-24T14:57:16.628Z,4.30
2018-12-24T14:59:45.811Z,4.30
2018-12-24T15:02:15.076Z,4.13
2018-12-24T15:04:44.232Z,4.10
2018-12-24T15:07:13.448Z,4.30
2018-12-24T15:09:42.624Z,4.07
2018-12-24T15:12:11.864Z,3.80
2018-12-24T15:14:41.064Z,3.50
2018-12-24T15:17:10.352Z,3.67
2018-12-24T15:19:39.630Z,4.80
2018-12-24T15:22:10.620Z,4.57
2018-12-24T15:24:39.964Z,4.17
2018-12-24T15:27:09.164Z,5.07
2018-12-24T15:29:38.346Z,5.40
2018-12-24T15:32:07.520Z,4.37
2018-12-24T15:34:36.822Z,3.53
2018-12-24T15:37:06.052Z,4.40
2018-12-24T15:39:35.284Z,4.10
2018-12-24T15:42:04.533Z,4.53
2018-12-24T15:44:33.705Z,5.07
2018-12-24T15:47:02.891Z,4.80
2018-12-24T15:49:32.064Z,4.00
2018-12-24T15:52:01.652Z,4.17
2018-12-24T15:54:30.921Z,4.47
2018-12-24T15:57:00.104Z,4.77
2018-12-24T15:59:29.304Z,6.57
2018-12-24T16:01:58.506Z,4.73
2018-12-24T16:04:27.700Z,5.27
2018-12-24T16:06:56.884Z,5.00
2018-12-24T16:09:26.054Z,5.10
2018-12-24T16:11:55.248Z,5.33
2018-12-24T16:14:24.404Z,5.30
2018-12-24T16:16:53.616Z,5.47
2018-12-24T16:19:22.784Z,5.97
2018-12-24T16:21:51.948Z,5.57
2018-12-24T16:24:21.107Z,5.93
2018-12-24T16:26:50.579Z,5.17
2018-12-24T16:29:19.749Z,5.43
2018-12-24T16:31:48.931Z,5.03
2018-12-24T16:34:18.112Z,4.33
2018-12-24T16:36:49.072Z,4.10
2018-12-24T16:39:18.499Z,4.43
2018-12-24T16:41:47.742Z,4.40
2018-12-24T16:44:17.015Z,4.03
2018-12-24T16:46:46.276Z,4.40
2018-12-24T16:49:15.561Z,4.20
2018-12-24T16:51:44.821Z,4.50
2018-12-24T16:54:13.976Z,4.57
2018-12-24T16:56:43.251Z,4.80
2018-12-24T16:59:12.412Z,5.10
2018-12-24T17:01:41.593Z,5.50
2018-12-24T17:04:10.730Z,5.17
2018-12-24T17:06:39.967Z,5.37
2018-12-24T17:09:10.293Z,5.37
2018-12-24T17:11:39.469Z,5.90
2018-12-24T17:14:08.725Z,5.73
2018-12-24T17:16:37.891Z,5.83
2018-12-24T17:19:07.059Z,5.60
2018-12-24T17:21:36.219Z,5.40
2018-12-24T17:24:05.492Z,5.67
2018-12-24T17:26:34.687Z,5.80
2018-12-24T17:29:03.931Z,6.83
2018-12-24T17:31:33.173Z,6.40
2018-12-24T17:34:02.420Z,6.27
2018-12-24T17:36:31.595Z,6.63
2018-12-24T17:39:00.838Z,6.30
2018-12-24T17:41:30.072Z,5.80
2018-12-24T17:43:59.221Z,5.53
2018-12-24T17:46:28.432Z,5.93
2018-12-24T17:48:57.581Z,5.53
2018-12-24T17:51:26.789Z,6.27
2018-12-24T17:53:56.026Z,6.03
2018-12-24T17:56:25.179Z,6.20
2018-12-24T17:58:54.340Z,6.00
2018-12-24T18:01:23.582Z,6.30
2018-12-24T18:03:52.872Z,5.80
2018-12-24T18:06:22.102Z,6.60
2018-12-24T18:08:51.338Z,5.87
2018-12-24T18:11:20.532Z,6.03
2018-12-24T18:13:49.696Z,6.77
2018-12-24T18:16:18.907Z,6.70
2018-12-24T18:18:48.067Z,6.00
2018-12-24T18:21:17.331Z,6.23
2018-12-24T18:23:46.503Z,7.87
2018-12-24T18:26:15.875Z,7.37
2018-12-24T18:28:45.151Z,7.67
2018-12-24T18:31:19.886Z,6.40
2018-12-24T18:33:45.225Z,5.93
2018-12-24T18:36:16.963Z,5.90
2018-12-24T18:38:46.156Z,5.00
2018-12-24T18:41:15.332Z,5.27
2018-12-24T18:43:44.621Z,4.63
2018-12-24T18:46:13.855Z,4.93
2018-12-24T18:48:43.023Z,4.40
2018-12-24T18:51:12.212Z,4.83
2018-12-24T18:53:41.556Z,5.00
2018-12-24T18:56:10.772Z,4.63
2018-12-24T18:58:40.003Z,5.00
2018-12-24T19:01:09.260Z,4.40
2018-12-24T19:03:38.520Z,4.50
2018-12-24T19:06:07.767Z,4.33
2018-12-24T19:08:36.945Z,4.70
2018-12-24T19:11:06.133Z,4.33
2018-12-24T19:13:35.782Z,4.73
2018-12-24T19:16:05.016Z,4.37
2018-12-24T19:18:34.239Z,4.53
2018-12-24T19:21:03.499Z,4.60
2018-12-24T19:23:32.680Z,4.50
2018-12-24T19:26:01.879Z,4.73
2018-12-24T19:28:31.149Z,4.77
2018-12-24T19:31:00.712Z,4.60
2018-12-24T19:33:29.951Z,4.83
2018-12-24T19:35:59.187Z,4.83
2018-12-24T19:38:28.375Z,5.07
2018-12-24T19:40:57.554Z,4.50
2018-12-24T19:43:26.864Z,5.50
2018-12-24T19:45:56.017Z,4.73
2018-12-24T19:48:25.294Z,5.00
2018-12-24T19:50:54.483Z,4.40
2018-12-24T19:53:23.735Z,4.80
2018-12-24T19:55:54.922Z,4.63
2018-12-24T19:58:23.872Z,4.97
2018-12-24T20:00:53.103Z,4.83
2018-12-24T20:03:22.304Z,4.67
2018-12-24T20:05:51.507Z,4.67
2018-12-24T20:08:20.688Z,5.10
2018-12-24T20:10:49.963Z,4.43
2018-12-24T20:13:19.163Z,4.43
2018-12-24T20:15:48.396Z,4.70
2018-12-24T20:18:17.735Z,4.30
2018-12-24T20:20:46.996Z,4.63
2018-12-24T20:23:16.172Z,4.77
2018-12-24T20:25:45.438Z,5.03
2018-12-24T20:28:14.737Z,4.80
2018-12-24T20:30:43.988Z,4.23
2018-12-24T20:33:13.191Z,4.87
2018-12-24T20:35:42.368Z,4.27
2018-12-24T20:38:11.567Z,4.70
2018-12-24T20:40:40.773Z,4.73
2018-12-24T20:43:10.112Z,4.13
2018-12-24T20:45:39.380Z,4.77
2018-12-24T20:48:08.648Z,4.00
2018-12-24T20:50:37.852Z,4.80
2018-12-24T20:53:07.134Z,4.60
2018-12-24T20:55:36.372Z,4.67
2018-12-24T20:58:05.675Z,4.20
2018-12-24T21:00:35.012Z,4.10
2018-12-24T21:03:04.825Z,5.00
2018-12-24T21:05:34.004Z,4.40
2018-12-24T21:08:03.352Z,4.30
2018-12-24T21:10:32.640Z,3.80
2018-12-24T21:13:01.963Z,4.00
2018-12-24T21:15:31.235Z,4.10
2018-12-24T21:18:00.466Z,4.10
2018-12-24T21:20:29.684Z,3.73
2018-12-24T21:22:58.906Z,3.93
2018-12-24T21:25:28.087Z,3.73
2018-12-24T21:27:57.365Z,4.03
2018-12-24T21:30:26.553Z,4.20
2018-12-24T21:32:55.836Z,4.17
2018-12-24T21:35:25.142Z,4.23
2018-12-24T21:37:54.335Z,3.93
2018-12-24T21:40:23.584Z,4.37
2018-12-24T21:42:54.698Z,4.47
2018-12-24T21:45:23.708Z,3.97
2018-12-24T21:47:52.952Z,4.20
2018-12-24T21:50:22.242Z,4.37
2018-12-24T21:52:51.447Z,5.50
2018-12-24T21:55:20.656Z,4.90
2018-12-24T21:57:49.860Z,4.20
2018-12-24T22:00:19.089Z,4.30
2018-12-24T22:02:48.301Z,4.30
2018-12-24T22:05:17.497Z,3.90
2018-12-24T22:07:46.669Z,4.17
2018-12-24T22:10:15.900Z,3.63
2018-12-24T22:12:45.167Z,3.70
2018-12-24T22:15:14.468Z,3.60
2018-12-24T22:17:43.760Z,4.00
2018-12-24T22:20:12.913Z,3.20
2018-12-24T22:22:43.974Z,3.73
2018-12-24T22:25:13.063Z,3.90
2018-12-24T22:27:42.300Z,3.57
2018-12-24T22:30:11.599Z,3.63
2018-12-24T22:32:40.827Z,3.80
2018-12-24T22:35:10.099Z,3.93
2018-12-24T22:37:39.571Z,3.70
2018-12-24T22:40:08.810Z,3.07
2018-12-24T22:42:38.063Z,3.50
2018-12-24T22:45:07.324Z,3.20
2018-12-24T22:47:36.512Z,3.23
2018-12-24T22:50:05.872Z,3.40
2018-12-24T22:52:35.075Z,3.30
2018-12-24T22:55:04.272Z,3.30
2018-12-24T22:57:33.459Z,3.37
2018-12-24T23:00:02.742Z,3.10
2018-12-24T23:02:31.935Z,2.97
2018-12-24T23:05:01.216Z,3.20
2018-12-24T23:07:30.408Z,3.03
2018-12-24T23:09:59.615Z,3.70
2018-12-24T23:12:28.847Z,3.23
2018-12-24T23:14:58.017Z,3.17
2018-12-24T23:17:27.195Z,3.40
2018-12-24T23:19:56.368Z,3.50
2018-12-24T23:22:25.565Z,3.37
2018-12-24T23:24:54.728Z,2.70
2018-12-24T23:27:23.899Z,2.87
2018-12-24T23:29:53.084Z,2.70
2018-12-24T23:32:22.252Z,2.77
2018-12-24T23:34:51.468Z,2.80
2018-12-24T23:37:20.730Z,2.90
2018-12-24T23:39:49.919Z,2.70
2018-12-24T23:42:19.179Z,2.53
2018-12-24T23:44:48.322Z,2.30
2018-12-24T23:47:17.603Z,2.50
2018-12-24T23:49:46.827Z,2.60
2018-12-24T23:52:16.022Z,2.37
2018-12-24T23:54:45.220Z,2.63
2018-12-24T23:57:14.487Z,2.83
2018-12-24T23:59:43.730Z,2.43
